createdAt,value
2022-09-23T00:02:16.686Z,2.27
2022-09-23T00:04:45.070Z,2.70
2022-09-23T00:07:13.418Z,2.57
2022-09-23T00:09:43.020Z,2.47
2022-09-23T00:12:11.421Z,2.27
2022-09-23T00:14:40.704Z,2.40
2022-09-23T00:17:09.015Z,2.20
2022-09-23T00:19:40.398Z,2.60
2022-09-23T00:22:09.024Z,2.43
2022-09-23T00:24:37.513Z,2.33
2022-09-23T00:27:07.374Z,2.90
2022-09-23T00:29:36.939Z,2.70
2022-09-23T00:32:06.066Z,2.70
2022-09-23T00:34:34.537Z,3.13
2022-09-23T00:37:02.782Z,3.43
2022-09-23T00:39:31.335Z,3.10
2022-09-23T00:41:59.687Z,3.47
2022-09-23T00:44:48.914Z,3.03
2022-09-23T00:47:25.574Z,3.30
2022-09-23T00:50:03.899Z,2.80
2022-09-23T00:52:33.291Z,2.77
2022-09-23T00:55:11.086Z,2.73
2022-09-23T00:57:41.443Z,3.20
2022-09-23T01:00:13.238Z,2.97
2022-09-23T01:02:41.636Z,3.00
2022-09-23T01:05:10.991Z,2.90
2022-09-23T01:07:39.326Z,2.87
2022-09-23T01:10:10.037Z,2.70
2022-09-23T01:12:54.776Z,2.83
2022-09-23T01:15:32.507Z,2.77
2022-09-23T01:18:12.429Z,3.30
2022-09-23T01:21:16.658Z,3.27
2022-09-23T01:24:55.575Z,2.70
2022-09-23T01:27:56.840Z,2.80
2022-09-23T01:30:47.498Z,2.50
2022-09-23T01:33:24.309Z,2.77
2022-09-23T01:36:06.199Z,3.03
2022-09-23T01:38:43.468Z,2.97
2022-09-23T01:41:26.670Z,2.93
2022-09-23T01:44:02.601Z,3.27
2022-09-23T01:46:38.894Z,2.80
2022-09-23T01:49:13.727Z,2.43
2022-09-23T01:51:47.391Z,2.67
2022-09-23T01:54:21.199Z,3.23
2022-09-23T01:56:55.111Z,3.43
2022-09-23T01:59:31.523Z,2.80
2022-09-23T02:02:06.877Z,2.70
2022-09-23T02:04:45.794Z,3.43
2022-09-23T02:07:21.408Z,3.60
2022-09-23T02:09:56.103Z,3.03
2022-09-23T02:12:28.564Z,2.97
2022-09-23T02:15:03.957Z,3.03
2022-09-23T02:17:40.084Z,2.93
2022-09-23T02:20:09.482Z,3.03
2022-09-23T02:22:42.672Z,2.70
2022-09-23T02:25:13.076Z,2.87
2022-09-23T02:27:48.956Z,2.73
2022-09-23T02:30:20.067Z,3.00
2022-09-23T02:32:56.555Z,2.97
2022-09-23T02:35:33.291Z,3.10
2022-09-23T02:38:17.730Z,2.83
2022-09-23T02:40:57.537Z,3.37
2022-09-23T02:43:35.468Z,2.97
2022-09-23T02:46:05.042Z,3.10
2022-09-23T02:48:40.666Z,2.80
2022-09-23T02:51:09.912Z,2.77
2022-09-23T02:53:38.597Z,3.20
2022-09-23T02:56:16.689Z,3.07
2022-09-23T02:58:46.946Z,3.13
2022-09-23T03:01:32.644Z,3.67
2022-09-23T03:04:14.858Z,2.73
2022-09-23T03:06:55.890Z,2.70
2022-09-23T03:09:30.750Z,2.67
2022-09-23T03:12:12.794Z,2.97
2022-09-23T03:14:49.934Z,2.70
2022-09-23T03:17:27.111Z,3.33
2022-09-23T03:20:04.051Z,3.60
2022-09-23T03:22:39.416Z,3.10
2022-09-23T03:25:13.250Z,2.90
2022-09-23T03:27:42.904Z,3.33
2022-09-23T03:30:12.980Z,3.10
2022-09-23T03:32:46.041Z,3.50
2022-09-23T03:35:16.321Z,2.70
2022-09-23T03:37:52.407Z,3.10
2022-09-23T03:40:26.310Z,2.80
2022-09-23T03:42:56.363Z,3.87
2022-09-23T03:45:29.381Z,3.20
2022-09-23T03:47:57.631Z,3.30
2022-09-23T03:50:27.222Z,3.60
2022-09-23T03:52:55.766Z,3.57
2022-09-23T03:55:24.068Z,3.23
2022-09-23T03:57:52.451Z,3.10
2022-09-23T04:00:20.849Z,3.23
2022-09-23T04:02:49.900Z,3.63
2022-09-23T04:05:18.377Z,3.17
2022-09-23T04:07:48.539Z,3.03
2022-09-23T04:10:16.896Z,2.97
2022-09-23T04:12:45.131Z,4.17
2022-09-23T04:15:13.458Z,3.67
2022-09-23T04:17:41.918Z,3.83
2022-09-23T04:20:10.959Z,3.77
2022-09-23T04:22:39.204Z,3.40
2022-09-23T04:25:10.498Z,3.90
2022-09-23T04:27:38.869Z,3.83
2022-09-23T04:30:08.542Z,3.97
2022-09-23T04:32:36.809Z,3.90
2022-09-23T04:35:06.727Z,4.20
2022-09-23T04:37:34.941Z,4.17
2022-09-23T04:40:03.876Z,3.30
2022-09-23T04:42:33.560Z,3.97
2022-09-23T04:45:01.810Z,4.37
2022-09-23T04:47:32.590Z,3.63
2022-09-23T04:50:00.847Z,3.73
2022-09-23T04:52:29.143Z,3.40
2022-09-23T04:54:57.386Z,4.13
2022-09-23T04:57:26.163Z,3.67
2022-09-23T04:59:57.408Z,3.73
2022-09-23T05:02:25.782Z,3.53
2022-09-23T05:04:54.382Z,3.90
2022-09-23T05:07:22.751Z,3.83
2022-09-23T05:09:50.973Z,3.40
2022-09-23T05:12:19.258Z,3.97
2022-09-23T05:14:47.443Z,4.23
2022-09-23T05:17:17.076Z,3.80
2022-09-23T05:19:45.433Z,3.93
2022-09-23T05:22:13.698Z,3.73
2022-09-23T05:24:42.071Z,4.33
2022-09-23T05:27:10.375Z,4.53
2022-09-23T05:29:39.211Z,4.70
2022-09-23T05:32:08.016Z,5.53
2022-09-23T05:34:37.657Z,5.23
2022-09-23T05:37:06.231Z,5.60
2022-09-23T05:39:34.526Z,5.07
2022-09-23T05:42:02.793Z,5.60
2022-09-23T05:44:31.061Z,5.47
2022-09-23T05:46:59.399Z,4.70
2022-09-23T05:49:48.265Z,5.07
2022-09-23T05:52:17.611Z,5.03
2022-09-23T05:54:45.882Z,4.97
2022-09-23T05:57:14.113Z,4.70
2022-09-23T05:59:43.352Z,4.87
2022-09-23T06:02:11.736Z,5.20
2022-09-23T06:04:40.115Z,4.90
2022-09-23T06:07:08.681Z,5.37
2022-09-23T06:09:38.303Z,5.90
2022-09-23T06:12:07.411Z,5.17
2022-09-23T06:14:35.711Z,5.23
2022-09-23T06:17:05.558Z,5.90
2022-09-23T06:19:33.749Z,6.50
2022-09-23T06:22:02.006Z,6.10
2022-09-23T06:24:31.585Z,6.50
2022-09-23T06:27:02.562Z,6.40
2022-09-23T06:29:33.170Z,7.13
2022-09-23T06:32:01.836Z,6.23
2022-09-23T06:34:31.966Z,6.93
2022-09-23T06:37:12.994Z,6.37
2022-09-23T06:39:46.674Z,6.70
2022-09-23T06:42:16.654Z,4.77
2022-09-23T06:44:44.999Z,4.90
2022-09-23T06:47:13.286Z,5.40
2022-09-23T06:49:41.563Z,5.17
2022-09-23T06:52:09.828Z,5.37
2022-09-23T06:54:38.105Z,5.53
2022-09-23T06:57:06.443Z,5.20
2022-09-23T06:59:36.055Z,6.47
2022-09-23T07:02:04.547Z,5.50
2022-09-23T07:04:32.906Z,5.37
2022-09-23T07:07:01.102Z,5.53
2022-09-23T07:09:29.360Z,6.20
2022-09-23T07:11:57.573Z,5.93
2022-09-23T07:14:26.070Z,5.60
2022-09-23T07:16:55.708Z,5.20
2022-09-23T07:19:26.147Z,6.40
2022-09-23T07:21:54.383Z,5.47
2022-09-23T07:24:22.990Z,5.70
2022-09-23T07:26:51.493Z,5.73
2022-09-23T07:29:19.697Z,5.80
2022-09-23T07:31:47.983Z,5.80
2022-09-23T07:34:17.633Z,5.67
2022-09-23T07:36:45.879Z,5.47
2022-09-23T07:39:14.961Z,5.40
2022-09-23T07:41:44.683Z,5.13
2022-09-23T07:44:13.419Z,6.03
2022-09-23T07:46:41.697Z,5.30
2022-09-23T07:49:10.492Z,5.40
2022-09-23T07:51:41.735Z,4.97
2022-09-23T07:54:14.549Z,4.77
2022-09-23T07:56:44.185Z,5.00
2022-09-23T07:59:15.391Z,5.00
2022-09-23T08:01:47.946Z,4.70
2022-09-23T08:04:18.918Z,4.67
2022-09-23T08:06:51.402Z,4.83
2022-09-23T08:09:22.222Z,4.70
2022-09-23T08:11:52.128Z,4.63
2022-09-23T08:14:22.330Z,3.60
2022-09-23T08:16:51.902Z,2.87
2022-09-23T08:19:20.604Z,3.07
2022-09-23T08:21:52.237Z,2.67
2022-09-23T08:24:24.227Z,3.20
2022-09-23T08:26:54.343Z,3.20
2022-09-23T08:29:24.363Z,2.90
2022-09-23T08:31:53.523Z,2.77
2022-09-23T08:34:23.721Z,2.40
2022-09-23T08:36:53.386Z,2.47
2022-09-23T08:39:23.146Z,2.60
2022-09-23T08:42:07.115Z,3.00
2022-09-23T08:44:50.917Z,2.53
2022-09-23T08:47:25.164Z,2.67
2022-09-23T08:50:01.636Z,2.87
2022-09-23T08:52:39.487Z,2.33
2022-09-23T08:55:13.602Z,2.47
2022-09-23T08:58:23.548Z,2.23
2022-09-23T09:00:47.848Z,2.50
2022-09-23T09:03:24.878Z,2.40
2022-09-23T09:05:54.778Z,2.40
2022-09-23T09:08:32.020Z,2.10
2022-09-23T09:11:01.386Z,2.03
2022-09-23T09:13:34.672Z,2.43
2022-09-23T09:17:01.346Z,2.00
2022-09-23T09:19:55.277Z,2.50
2022-09-23T09:22:44.022Z,2.40
2022-09-23T09:25:25.574Z,2.13
2022-09-23T09:27:55.139Z,2.20
2022-09-23T09:30:25.052Z,1.93
2022-09-23T09:33:00.677Z,2.00
2022-09-23T09:35:38.139Z,2.23
2022-09-23T09:38:06.826Z,2.30
2022-09-23T09:40:37.252Z,1.90
2022-09-23T09:43:05.623Z,2.20
2022-09-23T09:45:57.963Z,2.20
2022-09-23T09:48:37.811Z,2.33
2022-09-23T09:51:21.472Z,1.90
2022-09-23T09:53:52.116Z,1.83
2022-09-23T09:56:27.269Z,2.30
2022-09-23T09:59:00.928Z,1.97
2022-09-23T10:01:32.167Z,1.70
2022-09-23T10:04:04.675Z,2.00
2022-09-23T10:06:35.761Z,1.90
2022-09-23T10:09:15.984Z,1.70
2022-09-23T10:12:13.086Z,1.77
2022-09-23T10:14:41.347Z,2.57
2022-09-23T10:17:16.361Z,3.10
2022-09-23T10:19:49.389Z,1.80
2022-09-23T10:22:26.382Z,1.60
2022-09-23T10:24:56.288Z,1.60
2022-09-23T10:27:33.530Z,1.93
2022-09-23T10:30:05.299Z,1.43
2022-09-23T10:32:37.492Z,1.57
2022-09-23T10:35:16.921Z,1.23
2022-09-23T10:37:49.437Z,1.50
2022-09-23T10:40:40.213Z,1.73
2022-09-23T10:43:41.272Z,1.60
2022-09-23T10:46:39.618Z,1.70
2022-09-23T10:49:53.193Z,1.80
2022-09-23T10:52:39.341Z,1.73
2022-09-23T10:55:20.939Z,1.43
2022-09-23T10:58:33.229Z,1.50
2022-09-23T11:01:17.448Z,1.40
2022-09-23T11:04:16.469Z,1.60
2022-09-23T11:07:07.253Z,1.50
2022-09-23T11:09:51.126Z,1.30
2022-09-23T11:12:35.840Z,1.40
2022-09-23T11:15:27.805Z,1.50
2022-09-23T11:18:36.128Z,1.40
2022-09-23T11:21:32.869Z,1.30
2022-09-23T11:24:39.342Z,1.30
2022-09-23T11:27:20.269Z,1.43
2022-09-23T11:30:09.556Z,1.27
2022-09-23T11:33:14.231Z,1.80
2022-09-23T11:35:49.822Z,1.40
2022-09-23T11:38:25.970Z,1.20
2022-09-23T11:41:00.838Z,1.60
2022-09-23T11:43:33.896Z,1.80
2022-09-23T11:46:09.514Z,1.40
2022-09-23T11:48:47.394Z,1.40
2022-09-23T11:51:24.703Z,1.20
2022-09-23T11:53:56.978Z,1.20
2022-09-23T11:56:35.524Z,1.20
2022-09-23T11:59:13.492Z,1.20
2022-09-23T12:01:49.767Z,1.50
2022-09-23T12:04:29.704Z,1.30
2022-09-23T12:07:04.054Z,1.60
2022-09-23T12:09:57.805Z,1.40
2022-09-23T12:12:32.886Z,1.60
2022-09-23T12:15:06.255Z,1.40
2022-09-23T12:18:00.126Z,1.23
2022-09-23T12:20:58.974Z,1.23
2022-09-23T12:23:53.113Z,1.10
2022-09-23T12:26:24.644Z,1.20
2022-09-23T12:28:55.675Z,1.63
2022-09-23T12:31:30.685Z,1.33
2022-09-23T12:34:01.867Z,2.13
2022-09-23T12:36:35.742Z,1.80
2022-09-23T12:39:07.435Z,1.77
2022-09-23T12:41:40.212Z,1.70
2022-09-23T12:44:31.529Z,2.00
2022-09-23T12:47:37.338Z,1.60
2022-09-23T12:50:50.864Z,1.90
2022-09-23T12:53:55.239Z,1.57
2022-09-23T12:56:27.928Z,1.77
2022-09-23T12:59:22.127Z,1.60
2022-09-23T13:01:50.565Z,2.07
2022-09-23T13:05:02.588Z,1.93
2022-09-23T13:07:34.225Z,1.50
2022-09-23T13:10:15.056Z,1.73
2022-09-23T13:12:44.817Z,1.67
2022-09-23T13:15:28.778Z,1.50
2022-09-23T13:18:26.174Z,1.70
2022-09-23T13:20:56.879Z,1.57
2022-09-23T13:23:26.903Z,1.80
2022-09-23T13:26:00.752Z,1.50
2022-09-23T13:28:43.031Z,1.20
2022-09-23T13:31:17.481Z,1.60
2022-09-23T13:33:49.248Z,1.40
2022-09-23T13:36:21.148Z,1.63
2022-09-23T13:38:49.567Z,1.60
2022-09-23T13:41:23.108Z,1.67
2022-09-23T13:43:55.313Z,1.50
2022-09-23T13:46:27.048Z,1.40
2022-09-23T13:48:56.519Z,1.90
2022-09-23T13:51:28.328Z,1.50
2022-09-23T13:53:59.023Z,1.83
2022-09-23T13:56:31.671Z,1.67
2022-09-23T13:59:25.731Z,1.63
2022-09-23T14:02:06.045Z,1.80
2022-09-23T14:04:34.458Z,2.10
2022-09-23T14:07:03.834Z,2.20
2022-09-23T14:09:33.234Z,1.60
2022-09-23T14:12:06.046Z,1.80
2022-09-23T14:14:37.081Z,1.43
2022-09-23T14:17:06.595Z,1.97
2022-09-23T14:19:36.501Z,1.57
2022-09-23T14:22:08.176Z,1.50
2022-09-23T14:24:40.558Z,1.43
2022-09-23T14:27:17.565Z,1.37
2022-09-23T14:29:48.177Z,1.53
2022-09-23T14:32:21.133Z,1.70
2022-09-23T14:34:53.451Z,1.70
2022-09-23T14:37:47.573Z,1.70
2022-09-23T14:40:19.645Z,2.50
2022-09-23T14:42:52.909Z,3.70
2022-09-23T14:47:58.847Z,2.13
2022-09-23T14:50:47.193Z,2.83
2022-09-23T14:53:36.858Z,2.27
2022-09-23T14:56:20.939Z,1.90
2022-09-23T14:58:54.194Z,3.30
2022-09-23T15:01:36.566Z,2.40
2022-09-23T15:04:16.201Z,2.03
2022-09-23T15:06:50.699Z,1.50
2022-09-23T15:09:28.021Z,1.47
2022-09-23T15:12:02.041Z,1.20
2022-09-23T15:14:39.627Z,1.40
2022-09-23T15:17:25.890Z,1.10
2022-09-23T15:19:57.126Z,1.30
2022-09-23T15:22:26.139Z,1.20
2022-09-23T15:24:56.435Z,1.70
2022-09-23T15:27:30.885Z,1.77
2022-09-23T15:30:19.629Z,1.40
2022-09-23T15:32:48.904Z,1.03
2022-09-23T15:35:19.628Z,1.23
2022-09-23T15:37:50.082Z,1.20
2022-09-23T15:40:22.769Z,1.50
2022-09-23T15:42:52.669Z,1.23
2022-09-23T15:45:31.633Z,1.50
2022-09-23T15:48:04.180Z,1.17
2022-09-23T15:50:35.121Z,1.20
2022-09-23T15:53:03.580Z,1.40
2022-09-23T15:55:32.012Z,1.40
2022-09-23T15:58:00.584Z,1.13
2022-09-23T16:00:30.352Z,1.30
2022-09-23T16:02:58.693Z,1.43
2022-09-23T16:05:33.172Z,1.40
2022-09-23T16:08:07.900Z,1.20
2022-09-23T16:10:37.842Z,1.30
2022-09-23T16:13:11.710Z,1.53
2022-09-23T16:15:42.022Z,1.27
2022-09-23T16:18:11.875Z,1.50
2022-09-23T16:20:43.009Z,1.53
2022-09-23T16:23:34.702Z,1.90
2022-09-23T16:26:07.285Z,3.07
2022-09-23T16:28:35.921Z,1.57
2022-09-23T16:31:05.942Z,2.47
2022-09-23T16:33:34.301Z,14.50
2022-09-23T16:36:03.418Z,3.20
2022-09-23T16:38:32.822Z,2.70
2022-09-23T16:41:01.421Z,2.33
2022-09-23T16:43:31.669Z,22.67
2022-09-23T16:46:00.388Z,10.47
2022-09-23T16:48:30.114Z,5.13
2022-09-23T16:50:58.500Z,6.63
2022-09-23T16:53:30.585Z,11.53
2022-09-23T16:55:59.029Z,11.93
2022-09-23T16:58:27.350Z,5.67
2022-09-23T17:01:16.205Z,5.10
2022-09-23T17:03:47.247Z,6.97
2022-09-23T17:06:19.379Z,3.87
2022-09-23T17:08:49.356Z,3.70
2022-09-23T17:11:18.243Z,3.57
2022-09-23T17:13:47.586Z,3.13
2022-09-23T17:16:24.820Z,2.73
2022-09-23T17:18:56.499Z,3.10
2022-09-23T17:21:27.003Z,3.93
2022-09-23T17:23:55.907Z,3.20
2022-09-23T17:26:26.811Z,7.60
2022-09-23T17:28:57.521Z,6.30
2022-09-23T17:31:26.626Z,7.53
2022-09-23T17:33:56.619Z,6.00
2022-09-23T17:36:24.937Z,4.60
2022-09-23T17:38:54.477Z,4.70
2022-09-23T17:41:22.986Z,3.40
2022-09-23T17:43:56.674Z,6.20
2022-09-23T17:46:25.373Z,4.83
2022-09-23T17:48:55.751Z,4.10
2022-09-23T17:51:25.293Z,5.30
2022-09-23T17:53:53.850Z,5.67
2022-09-23T17:56:24.941Z,5.07
2022-09-23T17:58:54.719Z,5.30
2022-09-23T18:01:25.821Z,4.67
2022-09-23T18:03:58.225Z,4.23
2022-09-23T18:06:28.985Z,4.60
2022-09-23T18:08:57.339Z,4.67
2022-09-23T18:11:27.769Z,4.70
2022-09-23T18:13:58.439Z,4.43
2022-09-23T18:16:29.235Z,4.20
2022-09-23T18:19:01.545Z,4.30
2022-09-23T18:21:32.683Z,4.70
2022-09-23T18:26:50.687Z,5.23
2022-09-23T18:29:19.710Z,5.20
2022-09-23T18:31:49.280Z,5.30
2022-09-23T18:34:20.318Z,5.17
2022-09-23T18:36:48.822Z,5.63
2022-09-23T18:39:17.348Z,4.80
2022-09-23T18:41:45.713Z,5.07
2022-09-23T18:44:14.075Z,5.30
2022-09-23T18:46:42.846Z,5.00
2022-09-23T18:49:28.609Z,4.83
2022-09-23T18:51:59.508Z,4.83
2022-09-23T18:54:30.391Z,5.50
2022-09-23T18:56:59.349Z,6.10
2022-09-23T18:59:29.123Z,6.77
2022-09-23T19:01:58.310Z,9.73
2022-09-23T19:04:28.184Z,9.73
2022-09-23T19:06:58.853Z,11.87
2022-09-23T19:09:27.309Z,8.27
2022-09-23T19:11:55.671Z,6.60
2022-09-23T19:14:23.967Z,6.33
2022-09-23T19:16:52.323Z,5.47
2022-09-23T19:19:20.927Z,5.57
2022-09-23T19:21:49.313Z,5.97
2022-09-23T19:24:20.507Z,5.80
2022-09-23T19:26:50.378Z,6.30
2022-09-23T19:29:21.816Z,6.23
2022-09-23T19:31:51.080Z,6.00
2022-09-23T19:34:23.850Z,5.63
2022-09-23T19:36:52.882Z,10.33
2022-09-23T19:39:24.971Z,13.83
2022-09-23T19:41:55.784Z,7.60
2022-09-23T19:44:25.204Z,5.83
2022-09-23T19:46:56.733Z,6.03
2022-09-23T19:49:26.123Z,5.40
2022-09-23T19:51:56.664Z,5.67
2022-09-23T19:54:27.604Z,5.23
2022-09-23T19:56:56.456Z,4.40
2022-09-23T19:59:26.456Z,4.40
2022-09-23T20:01:55.294Z,3.43
2022-09-23T20:04:23.800Z,3.10
2022-09-23T20:06:52.178Z,3.57
2022-09-23T20:09:20.874Z,3.37
2022-09-23T20:11:51.034Z,3.10
2022-09-23T20:14:19.469Z,4.50
2022-09-23T20:16:48.082Z,4.83
2022-09-23T20:19:16.664Z,4.47
2022-09-23T20:21:45.023Z,4.17
2022-09-23T20:24:16.207Z,3.90
2022-09-23T20:27:01.714Z,5.20
2022-09-23T20:29:31.452Z,5.10
2022-09-23T20:31:59.769Z,4.50
2022-09-23T20:34:29.697Z,3.33
2022-09-23T20:36:59.232Z,4.00
2022-09-23T20:39:28.107Z,4.10
2022-09-23T20:41:56.574Z,3.63
2022-09-23T20:44:25.113Z,3.57
2022-09-23T20:46:54.981Z,3.37
2022-09-23T20:49:23.429Z,3.50
2022-09-23T20:51:52.123Z,3.87
2022-09-23T20:54:21.033Z,4.30
2022-09-23T20:56:49.351Z,3.90
2022-09-23T20:59:17.981Z,3.80
2022-09-23T21:01:46.757Z,4.03
2022-09-23T21:04:16.677Z,4.47
2022-09-23T21:06:45.047Z,4.63
2022-09-23T21:09:13.329Z,4.30
2022-09-23T21:11:41.805Z,4.67
2022-09-23T21:14:10.731Z,4.40
2022-09-23T21:16:39.492Z,4.37
2022-09-23T21:19:08.565Z,4.80
2022-09-23T21:21:38.950Z,4.43
2022-09-23T21:24:36.011Z,4.40
2022-09-23T21:26:56.011Z,4.63
2022-09-23T21:29:24.310Z,4.13
2022-09-23T21:31:52.763Z,4.53
2022-09-23T21:34:21.126Z,4.40
2022-09-23T21:36:50.836Z,4.57
2022-09-23T21:39:19.525Z,4.63
2022-09-23T21:41:47.884Z,4.17
2022-09-23T21:44:16.455Z,4.43
2022-09-23T21:46:44.884Z,5.00
2022-09-23T21:49:13.322Z,4.40
2022-09-23T21:51:42.565Z,4.17
2022-09-23T21:54:15.994Z,4.33
2022-09-23T21:56:45.445Z,4.40
2022-09-23T21:59:14.005Z,4.80
2022-09-23T22:01:45.212Z,4.40
2022-09-23T22:04:17.671Z,4.93
2022-09-23T22:06:48.876Z,4.87
2022-09-23T22:09:21.849Z,5.27
2022-09-23T22:12:09.845Z,4.67
2022-09-23T22:14:39.126Z,4.50
2022-09-23T22:17:11.347Z,5.63
2022-09-23T22:19:45.877Z,5.13
2022-09-23T22:22:18.111Z,4.90
2022-09-23T22:24:49.121Z,5.27
2022-09-23T22:27:19.996Z,4.80
2022-09-23T22:30:05.868Z,4.83
2022-09-23T22:32:43.679Z,4.87
2022-09-23T22:35:16.571Z,4.63
2022-09-23T22:37:45.489Z,4.87
2022-09-23T22:40:16.774Z,5.07
2022-09-23T22:42:45.840Z,5.57
2022-09-23T22:45:14.754Z,4.20
2022-09-23T22:47:45.566Z,4.20
2022-09-23T22:50:16.096Z,4.30
2022-09-23T22:52:44.503Z,5.00
2022-09-23T22:55:14.463Z,4.47
2022-09-23T22:57:42.837Z,4.37
2022-09-23T23:00:13.500Z,4.43
2022-09-23T23:02:42.514Z,4.23
2022-09-23T23:05:11.376Z,4.53
2022-09-23T23:07:40.557Z,4.50
2022-09-23T23:10:10.341Z,4.03
2022-09-23T23:12:41.670Z,4.50
2022-09-23T23:15:12.889Z,4.40
2022-09-23T23:17:43.683Z,4.70
2022-09-23T23:20:12.266Z,4.40
2022-09-23T23:22:40.615Z,4.50
2022-09-23T23:25:10.509Z,4.73
2022-09-23T23:27:40.252Z,3.77
2022-09-23T23:30:10.334Z,4.60
2022-09-23T23:32:38.857Z,5.40
2022-09-23T23:35:08.591Z,4.30
2022-09-23T23:37:36.990Z,4.20
2022-09-23T23:40:06.331Z,4.43
2022-09-23T23:42:34.778Z,4.40
2022-09-23T23:45:05.026Z,4.90
2022-09-23T23:47:33.395Z,4.50
2022-09-23T23:50:04.423Z,4.97
2022-09-23T23:52:32.770Z,4.60
2022-09-23T23:55:01.109Z,4.43
2022-09-23T23:57:29.519Z,4.40
2022-09-23T23:59:57.867Z,5.10
